sensor_id;sensor_type;location;lat;lon;timestamp;temperature;humidity
65573;SHT30;52214;50.940;13.996;2022-07-29T00:01:55;13.74;71.45
65573;SHT30;52214;50.940;13.996;2022-07-29T00:04:21;13.69;71.40
65573;SHT30;52214;50.940;13.996;2022-07-29T00:06:46;13.67;71.62
65573;SHT30;52214;50.940;13.996;2022-07-29T00:09:12;13.66;71.73
65573;SHT30;52214;50.940;13.996;2022-07-29T00:11:37;13.63;71.97
65573;SHT30;52214;50.940;13.996;2022-07-29T00:14:03;13.52;72.37
65573;SHT30;52214;50.940;13.996;2022-07-29T00:16:28;13.53;72.42
65573;SHT30;52214;50.940;13.996;2022-07-29T00:18:54;13.52;72.49
65573;SHT30;52214;50.940;13.996;2022-07-29T00:21:19;13.49;72.58
65573;SHT30;52214;50.940;13.996;2022-07-29T00:23:46;13.46;72.69
65573;SHT30;52214;50.940;13.996;2022-07-29T00:26:12;13.39;72.80
65573;SHT30;52214;50.940;13.996;2022-07-29T00:31:07;13.38;73.32
65573;SHT30;52214;50.940;13.996;2022-07-29T00:33:33;13.42;73.62
65573;SHT30;52214;50.940;13.996;2022-07-29T00:35:59;13.36;73.09
65573;SHT30;52214;50.940;13.996;2022-07-29T00:38:24;13.32;73.15
65573;SHT30;52214;50.940;13.996;2022-07-29T00:40:50;13.26;73.48
65573;SHT30;52214;50.940;13.996;2022-07-29T00:43:17;13.34;73.79
65573;SHT30;52214;50.940;13.996;2022-07-29T00:45:43;13.25;74.02
65573;SHT30;52214;50.940;13.996;2022-07-29T00:48:09;13.11;74.71
65573;SHT30;52214;50.940;13.996;2022-07-29T00:50:36;13.28;74.32
65573;SHT30;52214;50.940;13.996;2022-07-29T00:53:04;12.95;75.25
65573;SHT30;52214;50.940;13.996;2022-07-29T00:55:30;12.94;75.42
65573;SHT30;52214;50.940;13.996;2022-07-29T00:57:57;12.91;76.08
65573;SHT30;52214;50.940;13.996;2022-07-29T01:00:26;12.88;75.59
65573;SHT30;52214;50.940;13.996;2022-07-29T01:02:52;12.94;75.91
65573;SHT30;52214;50.940;13.996;2022-07-29T01:05:20;12.90;75.32
65573;SHT30;52214;50.940;13.996;2022-07-29T01:07:48;13.00;75.05
65573;SHT30;52214;50.940;13.996;2022-07-29T01:10:15;13.05;75.16
65573;SHT30;52214;50.940;13.996;2022-07-29T01:12:43;13.05;75.25
65573;SHT30;52214;50.940;13.996;2022-07-29T01:15:09;12.97;75.94
65573;SHT30;52214;50.940;13.996;2022-07-29T01:29:06;12.72;77.70
65573;SHT30;52214;50.940;13.996;2022-07-29T01:31:41;12.67;77.73
65573;SHT30;52214;50.940;13.996;2022-07-29T01:34:11;12.73;77.77
65573;SHT30;52214;50.940;13.996;2022-07-29T01:36:44;12.67;77.96
65573;SHT30;52214;50.940;13.996;2022-07-29T01:39:32;12.52;78.10
65573;SHT30;52214;50.940;13.996;2022-07-29T01:42:16;12.55;77.57
65573;SHT30;52214;50.940;13.996;2022-07-29T01:47:20;12.81;77.10
65573;SHT30;52214;50.940;13.996;2022-07-29T01:49:51;12.79;77.06
65573;SHT30;52214;50.940;13.996;2022-07-29T01:52:54;12.73;76.81
65573;SHT30;52214;50.940;13.996;2022-07-29T01:55:25;12.74;76.56
65573;SHT30;52214;50.940;13.996;2022-07-29T01:57:52;12.79;77.34
65573;SHT30;52214;50.940;13.996;2022-07-29T02:00:20;12.91;76.72
65573;SHT30;52214;50.940;13.996;2022-07-29T02:02:47;12.83;77.03
65573;SHT30;52214;50.940;13.996;2022-07-29T02:05:16;12.72;77.94
65573;SHT30;52214;50.940;13.996;2022-07-29T02:07:43;12.50;79.03
65573;SHT30;52214;50.940;13.996;2022-07-29T02:10:13;12.53;79.33
65573;SHT30;52214;50.940;13.996;2022-07-29T02:12:40;12.49;79.69
65573;SHT30;52214;50.940;13.996;2022-07-29T02:15:08;12.45;79.89
65573;SHT30;52214;50.940;13.996;2022-07-29T02:17:43;12.63;79.06
65573;SHT30;52214;50.940;13.996;2022-07-29T02:20:11;12.57;79.00
65573;SHT30;52214;50.940;13.996;2022-07-29T02:22:38;12.49;79.04
65573;SHT30;52214;50.940;13.996;2022-07-29T02:25:05;12.57;79.65
65573;SHT30;52214;50.940;13.996;2022-07-29T02:27:33;12.66;79.26
65573;SHT30;52214;50.940;13.996;2022-07-29T02:30:01;12.55;79.96
65573;SHT30;52214;50.940;13.996;2022-07-29T02:32:28;12.56;79.67
65573;SHT30;52214;50.940;13.996;2022-07-29T02:34:55;12.56;79.80
65573;SHT30;52214;50.940;13.996;2022-07-29T02:37:22;12.57;80.17
65573;SHT30;52214;50.940;13.996;2022-07-29T02:39:48;12.77;78.60
65573;SHT30;52214;50.940;13.996;2022-07-29T02:42:16;12.84;78.40
65573;SHT30;52214;50.940;13.996;2022-07-29T02:44:42;12.76;78.66
65573;SHT30;52214;50.940;13.996;2022-07-29T02:47:24;12.85;79.33
65573;SHT30;52214;50.940;13.996;2022-07-29T02:50:12;12.76;79.72
65573;SHT30;52214;50.940;13.996;2022-07-29T02:52:40;12.90;79.53
65573;SHT30;52214;50.940;13.996;2022-07-29T02:55:19;12.72;80.24
65573;SHT30;52214;50.940;13.996;2022-07-29T02:57:54;12.67;80.71
65573;SHT30;52214;50.940;13.996;2022-07-29T03:00:28;12.76;80.44
65573;SHT30;52214;50.940;13.996;2022-07-29T03:02:58;12.57;81.15
65573;SHT30;52214;50.940;13.996;2022-07-29T03:05:25;12.57;81.24
65573;SHT30;52214;50.940;13.996;2022-07-29T03:07:55;12.56;81.19
65573;SHT30;52214;50.940;13.996;2022-07-29T03:10:23;12.67;80.24
65573;SHT30;52214;50.940;13.996;2022-07-29T03:12:50;12.74;79.27
65573;SHT30;52214;50.940;13.996;2022-07-29T03:15:15;12.80;79.10
65573;SHT30;52214;50.940;13.996;2022-07-29T03:17:42;12.87;80.25
65573;SHT30;52214;50.940;13.996;2022-07-29T03:20:09;13.01;80.07
65573;SHT30;52214;50.940;13.996;2022-07-29T03:22:41;12.81;81.13
65573;SHT30;52214;50.940;13.996;2022-07-29T03:25:16;12.83;81.33
65573;SHT30;52214;50.940;13.996;2022-07-29T03:27:42;12.70;81.35
65573;SHT30;52214;50.940;13.996;2022-07-29T03:30:09;12.68;80.93
65573;SHT30;52214;50.940;13.996;2022-07-29T03:32:35;12.73;80.42
65573;SHT30;52214;50.940;13.996;2022-07-29T03:35:01;12.72;80.53
65573;SHT30;52214;50.940;13.996;2022-07-29T03:37:27;12.76;80.85
65573;SHT30;52214;50.940;13.996;2022-07-29T03:39:54;12.76;80.98
65573;SHT30;52214;50.940;13.996;2022-07-29T03:42:24;12.77;80.90
65573;SHT30;52214;50.940;13.996;2022-07-29T03:44:52;12.64;81.48
65573;SHT30;52214;50.940;13.996;2022-07-29T03:47:22;12.47;82.06
65573;SHT30;52214;50.940;13.996;2022-07-29T03:49:50;12.39;82.16
65573;SHT30;52214;50.940;13.996;2022-07-29T03:52:17;12.35;82.41
65573;SHT30;52214;50.940;13.996;2022-07-29T03:54:43;12.35;82.13
65573;SHT30;52214;50.940;13.996;2022-07-29T03:57:10;12.28;82.15
65573;SHT30;52214;50.940;13.996;2022-07-29T03:59:36;12.33;82.89
65573;SHT30;52214;50.940;13.996;2022-07-29T04:02:04;12.43;82.60
65573;SHT30;52214;50.940;13.996;2022-07-29T04:04:34;12.64;81.48
65573;SHT30;52214;50.940;13.996;2022-07-29T04:07:00;12.36;82.12
65573;SHT30;52214;50.940;13.996;2022-07-29T04:09:25;12.40;81.77
65573;SHT30;52214;50.940;13.996;2022-07-29T04:11:51;12.61;82.20
65573;SHT30;52214;50.940;13.996;2022-07-29T04:14:17;12.59;82.00
65573;SHT30;52214;50.940;13.996;2022-07-29T04:16:42;12.63;81.40
65573;SHT30;52214;50.940;13.996;2022-07-29T04:19:26;12.59;81.98
65573;SHT30;52214;50.940;13.996;2022-07-29T04:21:52;12.66;82.42
65573;SHT30;52214;50.940;13.996;2022-07-29T04:24:18;12.74;82.46
65573;SHT30;52214;50.940;13.996;2022-07-29T04:26:45;12.76;82.75
65573;SHT30;52214;50.940;13.996;2022-07-29T04:29:11;12.80;82.70
65573;SHT30;52214;50.940;13.996;2022-07-29T04:31:37;12.80;82.49
65573;SHT30;52214;50.940;13.996;2022-07-29T04:34:02;12.88;81.67
65573;SHT30;52214;50.940;13.996;2022-07-29T04:36:28;12.88;80.60
65573;SHT30;52214;50.940;13.996;2022-07-29T04:38:53;12.91;81.46
65573;SHT30;52214;50.940;13.996;2022-07-29T04:41:19;12.79;81.28
65573;SHT30;52214;50.940;13.996;2022-07-29T04:43:44;12.72;82.21
65573;SHT30;52214;50.940;13.996;2022-07-29T04:46:10;12.79;82.19
65573;SHT30;52214;50.940;13.996;2022-07-29T04:48:35;12.83;82.10
65573;SHT30;52214;50.940;13.996;2022-07-29T04:51:01;12.85;82.64
65573;SHT30;52214;50.940;13.996;2022-07-29T04:53:26;12.90;82.36
65573;SHT30;52214;50.940;13.996;2022-07-29T04:55:52;13.02;82.14
65573;SHT30;52214;50.940;13.996;2022-07-29T04:58:17;12.94;81.75
65573;SHT30;52214;50.940;13.996;2022-07-29T05:00:43;12.94;82.22
65573;SHT30;52214;50.940;13.996;2022-07-29T05:03:09;13.12;82.18
65573;SHT30;52214;50.940;13.996;2022-07-29T05:05:34;13.07;81.96
65573;SHT30;52214;50.940;13.996;2022-07-29T05:08:00;13.25;81.82
65573;SHT30;52214;50.940;13.996;2022-07-29T05:10:25;13.42;81.04
65573;SHT30;52214;50.940;13.996;2022-07-29T05:12:51;13.67;79.84
65573;SHT30;52214;50.940;13.996;2022-07-29T05:15:16;13.84;79.49
65573;SHT30;52214;50.940;13.996;2022-07-29T05:17:43;14.07;78.25
65573;SHT30;52214;50.940;13.996;2022-07-29T05:20:09;14.30;77.34
65573;SHT30;52214;50.940;13.996;2022-07-29T05:22:35;14.35;77.01
65573;SHT30;52214;50.940;13.996;2022-07-29T05:25:01;14.39;76.88
65573;SHT30;52214;50.940;13.996;2022-07-29T05:27:26;14.49;76.20
65573;SHT30;52214;50.940;13.996;2022-07-29T05:29:51;14.65;76.08
65573;SHT30;52214;50.940;13.996;2022-07-29T05:32:17;14.73;75.16
65573;SHT30;52214;50.940;13.996;2022-07-29T05:34:42;14.95;74.48
65573;SHT30;52214;50.940;13.996;2022-07-29T05:37:08;15.10;74.33
65573;SHT30;52214;50.940;13.996;2022-07-29T05:39:34;15.24;74.04
65573;SHT30;52214;50.940;13.996;2022-07-29T05:41:59;15.53;72.83
65573;SHT30;52214;50.940;13.996;2022-07-29T05:44:25;15.79;72.28
65573;SHT30;52214;50.940;13.996;2022-07-29T05:46:50;16.21;71.90
65573;SHT30;52214;50.940;13.996;2022-07-29T05:49:16;16.33;70.17
65573;SHT30;52214;50.940;13.996;2022-07-29T05:51:41;16.72;69.73
65573;SHT30;52214;50.940;13.996;2022-07-29T05:54:07;16.95;68.83
65573;SHT30;52214;50.940;13.996;2022-07-29T05:56:32;17.18;67.69
65573;SHT30;52214;50.940;13.996;2022-07-29T05:58:58;17.42;68.83
65573;SHT30;52214;50.940;13.996;2022-07-29T06:01:23;17.67;68.09
65573;SHT30;52214;50.940;13.996;2022-07-29T06:03:49;17.86;68.09
65573;SHT30;52214;50.940;13.996;2022-07-29T06:06:14;17.67;66.54
65573;SHT30;52214;50.940;13.996;2022-07-29T06:08:40;17.70;65.78
65573;SHT30;52214;50.940;13.996;2022-07-29T06:11:05;17.96;65.81
65573;SHT30;52214;50.940;13.996;2022-07-29T06:13:32;17.67;65.50
65573;SHT30;52214;50.940;13.996;2022-07-29T06:15:57;17.74;65.91
65573;SHT30;52214;50.940;13.996;2022-07-29T06:18:23;17.86;66.49
65573;SHT30;52214;50.940;13.996;2022-07-29T06:20:53;18.25;66.12
65573;SHT30;52214;50.940;13.996;2022-07-29T06:23:19;18.02;66.28
65573;SHT30;52214;50.940;13.996;2022-07-29T06:25:45;17.90;66.34
65573;SHT30;52214;50.940;13.996;2022-07-29T06:28:11;18.15;65.62
65573;SHT30;52214;50.940;13.996;2022-07-29T06:30:37;18.22;65.36
65573;SHT30;52214;50.940;13.996;2022-07-29T06:33:03;18.48;65.64
65573;SHT30;52214;50.940;13.996;2022-07-29T06:35:29;18.48;65.01
65573;SHT30;52214;50.940;13.996;2022-07-29T06:37:54;18.67;65.16
65573;SHT30;52214;50.940;13.996;2022-07-29T06:40:23;18.89;63.88
65573;SHT30;52214;50.940;13.996;2022-07-29T06:43:07;19.08;63.44
65573;SHT30;52214;50.940;13.996;2022-07-29T06:45:35;19.04;63.76
65573;SHT30;52214;50.940;13.996;2022-07-29T06:48:01;19.12;63.41
65573;SHT30;52214;50.940;13.996;2022-07-29T06:50:26;19.27;63.01
65573;SHT30;52214;50.940;13.996;2022-07-29T06:52:51;19.59;62.21
65573;SHT30;52214;50.940;13.996;2022-07-29T06:55:17;19.46;62.17
65573;SHT30;52214;50.940;13.996;2022-07-29T06:57:45;19.58;61.40
65573;SHT30;52214;50.940;13.996;2022-07-29T07:00:12;19.87;60.72
65573;SHT30;52214;50.940;13.996;2022-07-29T07:02:38;19.98;59.86
65573;SHT30;52214;50.940;13.996;2022-07-29T07:05:04;20.00;59.36
65573;SHT30;52214;50.940;13.996;2022-07-29T07:07:30;20.07;59.53
65573;SHT30;52214;50.940;13.996;2022-07-29T07:09:56;20.44;59.68
65573;SHT30;52214;50.940;13.996;2022-07-29T07:12:21;20.68;59.70
65573;SHT30;52214;50.940;13.996;2022-07-29T07:14:47;20.86;59.12
65573;SHT30;52214;50.940;13.996;2022-07-29T07:17:13;20.96;58.13
65573;SHT30;52214;50.940;13.996;2022-07-29T07:19:38;21.11;58.48
65573;SHT30;52214;50.940;13.996;2022-07-29T07:22:04;21.17;58.40
65573;SHT30;52214;50.940;13.996;2022-07-29T07:24:29;21.26;58.90
65573;SHT30;52214;50.940;13.996;2022-07-29T07:26:55;21.78;58.72
65573;SHT30;52214;50.940;13.996;2022-07-29T07:29:20;21.73;59.34
65573;SHT30;52214;50.940;13.996;2022-07-29T07:31:46;21.72;58.38
65573;SHT30;52214;50.940;13.996;2022-07-29T07:34:11;21.82;57.81
65573;SHT30;52214;50.940;13.996;2022-07-29T07:36:37;21.96;58.29
65573;SHT30;52214;50.940;13.996;2022-07-29T07:39:02;22.49;56.89
65573;SHT30;52214;50.940;13.996;2022-07-29T07:41:30;22.51;57.43
65573;SHT30;52214;50.940;13.996;2022-07-29T07:43:55;22.75;55.16
65573;SHT30;52214;50.940;13.996;2022-07-29T07:46:21;23.06;55.87
65573;SHT30;52214;50.940;13.996;2022-07-29T07:48:46;23.23;54.81
65573;SHT30;52214;50.940;13.996;2022-07-29T07:51:12;23.44;53.66
65573;SHT30;52214;50.940;13.996;2022-07-29T07:53:37;23.88;52.22
65573;SHT30;52214;50.940;13.996;2022-07-29T07:56:03;23.88;52.81
65573;SHT30;52214;50.940;13.996;2022-07-29T07:58:30;24.03;52.49
65573;SHT30;52214;50.940;13.996;2022-07-29T08:00:55;24.30;52.09
65573;SHT30;52214;50.940;13.996;2022-07-29T08:03:21;24.24;51.36
65573;SHT30;52214;50.940;13.996;2022-07-29T08:05:46;24.12;51.37
65573;SHT30;52214;50.940;13.996;2022-07-29T08:08:12;24.67;51.85
65573;SHT30;52214;50.940;13.996;2022-07-29T08:10:38;24.71;51.51
65573;SHT30;52214;50.940;13.996;2022-07-29T08:13:25;25.03;51.18
65573;SHT30;52214;50.940;13.996;2022-07-29T08:15:54;25.60;50.06
65573;SHT30;52214;50.940;13.996;2022-07-29T08:18:38;26.36;48.83
65573;SHT30;52214;50.940;13.996;2022-07-29T08:21:04;26.29;49.74
65573;SHT30;52214;50.940;13.996;2022-07-29T08:23:30;26.39;46.78
65573;SHT30;52214;50.940;13.996;2022-07-29T08:26:08;26.47;48.00
65573;SHT30;52214;50.940;13.996;2022-07-29T08:28:42;26.52;47.05
65573;SHT30;52214;50.940;13.996;2022-07-29T08:31:12;26.99;45.10
65573;SHT30;52214;50.940;13.996;2022-07-29T08:33:38;26.33;47.86
65573;SHT30;52214;50.940;13.996;2022-07-29T08:36:05;26.30;46.78
65573;SHT30;52214;50.940;13.996;2022-07-29T08:38:32;26.95;46.86
65573;SHT30;52214;50.940;13.996;2022-07-29T08:40:59;27.32;46.54
65573;SHT30;52214;50.940;13.996;2022-07-29T08:43:27;27.40;44.89
65573;SHT30;52214;50.940;13.996;2022-07-29T08:45:53;27.88;43.88
65573;SHT30;52214;50.940;13.996;2022-07-29T08:48:21;28.77;43.21
65573;SHT30;52214;50.940;13.996;2022-07-29T08:50:48;28.82;42.22
65573;SHT30;52214;50.940;13.996;2022-07-29T08:53:16;29.23;40.81
65573;SHT30;52214;50.940;13.996;2022-07-29T08:55:44;28.65;40.16
65573;SHT30;52214;50.940;13.996;2022-07-29T08:58:11;28.84;41.14
65573;SHT30;52214;50.940;13.996;2022-07-29T09:00:41;28.39;41.58
65573;SHT30;52214;50.940;13.996;2022-07-29T09:03:08;28.32;41.95
65573;SHT30;52214;50.940;13.996;2022-07-29T09:05:34;28.24;40.52
65573;SHT30;52214;50.940;13.996;2022-07-29T09:08:01;28.24;42.23
65573;SHT30;52214;50.940;13.996;2022-07-29T09:10:27;28.35;41.10
65573;SHT30;52214;50.940;13.996;2022-07-29T09:12:54;28.43;41.44
65573;SHT30;52214;50.940;13.996;2022-07-29T09:15:20;28.49;41.25
65573;SHT30;52214;50.940;13.996;2022-07-29T09:17:49;28.82;40.89
65573;SHT30;52214;50.940;13.996;2022-07-29T09:20:20;28.71;41.50
65573;SHT30;52214;50.940;13.996;2022-07-29T09:22:47;29.18;40.69
65573;SHT30;52214;50.940;13.996;2022-07-29T09:25:33;28.92;38.79
65573;SHT30;52214;50.940;13.996;2022-07-29T09:28:13;28.67;40.30
65573;SHT30;52214;50.940;13.996;2022-07-29T09:30:53;29.06;41.13
65573;SHT30;52214;50.940;13.996;2022-07-29T09:33:20;29.39;39.82
65573;SHT30;52214;50.940;13.996;2022-07-29T09:36:08;29.88;38.17
65573;SHT30;52214;50.940;13.996;2022-07-29T09:38:35;30.47;38.03
65573;SHT30;52214;50.940;13.996;2022-07-29T09:41:03;30.16;38.61
65573;SHT30;52214;50.940;13.996;2022-07-29T09:43:29;30.42;37.30
65573;SHT30;52214;50.940;13.996;2022-07-29T09:45:55;29.80;37.64
65573;SHT30;52214;50.940;13.996;2022-07-29T09:48:25;29.63;37.02
65573;SHT30;52214;50.940;13.996;2022-07-29T09:50:51;29.32;37.56
65573;SHT30;52214;50.940;13.996;2022-07-29T09:53:34;29.22;37.92
65573;SHT30;52214;50.940;13.996;2022-07-29T09:56:00;28.92;37.93
65573;SHT30;52214;50.940;13.996;2022-07-29T09:58:26;29.16;36.93
65573;SHT30;52214;50.940;13.996;2022-07-29T10:00:53;29.60;37.09
65573;SHT30;52214;50.940;13.996;2022-07-29T10:03:20;29.42;37.63
65573;SHT30;52214;50.940;13.996;2022-07-29T10:06:04;29.34;37.58
65573;SHT30;52214;50.940;13.996;2022-07-29T10:08:30;29.12;38.37
65573;SHT30;52214;50.940;13.996;2022-07-29T10:11:18;29.04;37.90
65573;SHT30;52214;50.940;13.996;2022-07-29T10:13:45;29.12;39.07
65573;SHT30;52214;50.940;13.996;2022-07-29T10:16:13;29.49;38.58
65573;SHT30;52214;50.940;13.996;2022-07-29T10:18:42;30.13;36.96
65573;SHT30;52214;50.940;13.996;2022-07-29T10:21:08;30.56;36.20
65573;SHT30;52214;50.940;13.996;2022-07-29T10:23:35;30.44;35.67
65573;SHT30;52214;50.940;13.996;2022-07-29T10:26:02;30.64;36.66
65573;SHT30;52214;50.940;13.996;2022-07-29T10:28:30;30.05;37.28
65573;SHT30;52214;50.940;13.996;2022-07-29T10:31:01;30.56;36.29
65573;SHT30;52214;50.940;13.996;2022-07-29T10:33:44;31.05;36.21
65573;SHT30;52214;50.940;13.996;2022-07-29T10:36:32;30.73;35.77
65573;SHT30;52214;50.940;13.996;2022-07-29T10:42:02;31.54;34.43
65573;SHT30;52214;50.940;13.996;2022-07-29T10:44:32;31.46;34.48
65573;SHT30;52214;50.940;13.996;2022-07-29T10:46:58;31.40;34.26
65573;SHT30;52214;50.940;13.996;2022-07-29T10:49:25;31.57;34.27
65573;SHT30;52214;50.940;13.996;2022-07-29T10:54:46;32.42;32.44
65573;SHT30;52214;50.940;13.996;2022-07-29T10:59:50;33.21;32.85
65573;SHT30;52214;50.940;13.996;2022-07-29T11:05:08;34.21;31.76
65573;SHT30;52214;50.940;13.996;2022-07-29T11:07:35;34.89;30.17
65573;SHT30;52214;50.940;13.996;2022-07-29T11:15:14;35.61;29.55
65573;SHT30;52214;50.940;13.996;2022-07-29T11:20:43;33.90;30.85
65573;SHT30;52214;50.940;13.996;2022-07-29T11:23:32;34.09;30.83
65573;SHT30;52214;50.940;13.996;2022-07-29T11:28:55;33.83;31.50
65573;SHT30;52214;50.940;13.996;2022-07-29T11:31:38;35.34;29.88
65573;SHT30;52214;50.940;13.996;2022-07-29T11:45:08;35.37;30.26
65573;SHT30;52214;50.940;13.996;2022-07-29T11:47:41;35.11;30.43
65573;SHT30;52214;50.940;13.996;2022-07-29T11:50:14;35.11;31.05
65573;SHT30;52214;50.940;13.996;2022-07-29T11:52:42;34.76;32.24
65573;SHT30;52214;50.940;13.996;2022-07-29T11:55:21;33.89;32.34
65573;SHT30;52214;50.940;13.996;2022-07-29T11:57:52;33.35;33.07
65573;SHT30;52214;50.940;13.996;2022-07-29T12:00:32;33.65;33.52
65573;SHT30;52214;50.940;13.996;2022-07-29T12:03:01;33.89;32.62
65573;SHT30;52214;50.940;13.996;2022-07-29T12:05:44;34.69;31.79
65573;SHT30;52214;50.940;13.996;2022-07-29T12:08:18;34.18;31.76
65573;SHT30;52214;50.940;13.996;2022-07-29T12:10:46;33.10;32.44
65573;SHT30;52214;50.940;13.996;2022-07-29T12:13:13;33.01;33.30
65573;SHT30;52214;50.940;13.996;2022-07-29T12:15:39;32.53;34.25
65573;SHT30;52214;50.940;13.996;2022-07-29T12:18:13;32.07;34.30
65573;SHT30;52214;50.940;13.996;2022-07-29T12:20:38;31.33;34.97
65573;SHT30;52214;50.940;13.996;2022-07-29T12:23:06;33.22;33.57
65573;SHT30;52214;50.940;13.996;2022-07-29T12:25:33;34.43;31.91
65573;SHT30;52214;50.940;13.996;2022-07-29T12:28:01;34.21;31.73
65573;SHT30;52214;50.940;13.996;2022-07-29T12:30:44;33.42;33.53
65573;SHT30;52214;50.940;13.996;2022-07-29T12:33:11;34.10;32.70
65573;SHT30;52214;50.940;13.996;2022-07-29T12:35:38;35.26;30.96
65573;SHT30;52214;50.940;13.996;2022-07-29T12:38:03;35.69;30.74
65573;SHT30;52214;50.940;13.996;2022-07-29T12:40:29;33.65;32.80
65573;SHT30;52214;50.940;13.996;2022-07-29T12:43:17;34.18;32.48
65573;SHT30;52214;50.940;13.996;2022-07-29T12:45:46;35.48;31.12
65573;SHT30;52214;50.940;13.996;2022-07-29T12:48:12;37.46;28.70
65573;SHT30;52214;50.940;13.996;2022-07-29T12:50:56;36.51;29.20
65573;SHT30;52214;50.940;13.996;2022-07-29T12:53:22;36.89;28.99
65573;SHT30;52214;50.940;13.996;2022-07-29T12:55:50;36.37;28.78
65573;SHT30;52214;50.940;13.996;2022-07-29T12:58:37;35.52;30.41
65573;SHT30;52214;50.940;13.996;2022-07-29T13:06:36;37.82;27.68
65573;SHT30;52214;50.940;13.996;2022-07-29T13:11:36;35.86;29.84
65573;SHT30;52214;50.940;13.996;2022-07-29T13:14:03;37.15;28.28
65573;SHT30;52214;50.940;13.996;2022-07-29T13:16:28;37.54;27.90
65573;SHT30;52214;50.940;13.996;2022-07-29T13:19:05;38.33;26.48
65573;SHT30;52214;50.940;13.996;2022-07-29T13:21:31;37.82;26.90
65573;SHT30;52214;50.940;13.996;2022-07-29T13:23:56;38.81;25.88
65573;SHT30;52214;50.940;13.996;2022-07-29T13:26:22;38.40;26.01
65573;SHT30;52214;50.940;13.996;2022-07-29T13:28:47;37.98;27.01
65573;SHT30;52214;50.940;13.996;2022-07-29T13:31:13;38.33;26.77
65573;SHT30;52214;50.940;13.996;2022-07-29T13:33:38;38.33;25.60
65573;SHT30;52214;50.940;13.996;2022-07-29T13:36:04;39.66;25.27
65573;SHT30;52214;50.940;13.996;2022-07-29T13:38:29;39.38;25.11
65573;SHT30;52214;50.940;13.996;2022-07-29T13:40:58;37.06;26.67
65573;SHT30;52214;50.940;13.996;2022-07-29T13:43:23;35.77;28.95
65573;SHT30;52214;50.940;13.996;2022-07-29T13:45:49;35.47;29.76
65573;SHT30;52214;50.940;13.996;2022-07-29T13:48:14;34.68;30.11
65573;SHT30;52214;50.940;13.996;2022-07-29T13:50:40;34.29;30.37
65573;SHT30;52214;50.940;13.996;2022-07-29T13:53:05;34.35;31.38
65573;SHT30;52214;50.940;13.996;2022-07-29T13:55:31;34.99;31.18
65573;SHT30;52214;50.940;13.996;2022-07-29T13:57:56;32.63;32.56
65573;SHT30;52214;50.940;13.996;2022-07-29T14:00:22;33.04;33.87
65573;SHT30;52214;50.940;13.996;2022-07-29T14:02:49;33.37;32.05
65573;SHT30;52214;50.940;13.996;2022-07-29T14:05:14;33.70;31.55
65573;SHT30;52214;50.940;13.996;2022-07-29T14:07:40;35.59;30.40
65573;SHT30;52214;50.940;13.996;2022-07-29T14:10:06;37.34;28.67
65573;SHT30;52214;50.940;13.996;2022-07-29T14:12:32;37.26;27.97
65573;SHT30;52214;50.940;13.996;2022-07-29T14:14:57;38.25;27.25
65573;SHT30;52214;50.940;13.996;2022-07-29T14:17:23;39.36;26.55
65573;SHT30;52214;50.940;13.996;2022-07-29T14:19:48;37.61;28.34
65573;SHT30;52214;50.940;13.996;2022-07-29T14:22:14;36.58;29.22
65573;SHT30;52214;50.940;13.996;2022-07-29T14:24:39;36.03;28.69
65573;SHT30;52214;50.940;13.996;2022-07-29T14:27:06;37.49;27.97
65573;SHT30;52214;50.940;13.996;2022-07-29T14:29:32;38.33;27.30
65573;SHT30;52214;50.940;13.996;2022-07-29T14:31:58;39.50;26.34
65573;SHT30;52214;50.940;13.996;2022-07-29T14:34:23;36.81;27.96
65573;SHT30;52214;50.940;13.996;2022-07-29T14:36:49;35.68;28.86
65573;SHT30;52214;50.940;13.996;2022-07-29T14:39:14;36.43;28.05
65573;SHT30;52214;50.940;13.996;2022-07-29T14:41:42;38.40;26.69
65573;SHT30;52214;50.940;13.996;2022-07-29T14:44:08;38.53;26.24
65573;SHT30;52214;50.940;13.996;2022-07-29T14:46:34;36.98;27.68
65573;SHT30;52214;50.940;13.996;2022-07-29T14:48:59;37.51;27.04
65573;SHT30;52214;50.940;13.996;2022-07-29T14:51:25;35.93;28.35
65573;SHT30;52214;50.940;13.996;2022-07-29T14:53:50;36.03;28.65
65573;SHT30;52214;50.940;13.996;2022-07-29T14:56:16;35.54;29.64
65573;SHT30;52214;50.940;13.996;2022-07-29T14:58:41;34.35;30.42
65573;SHT30;52214;50.940;13.996;2022-07-29T15:01:07;34.58;31.05
65573;SHT30;52214;50.940;13.996;2022-07-29T15:03:32;35.06;30.07
65573;SHT30;52214;50.940;13.996;2022-07-29T15:05:58;36.92;28.51
65573;SHT30;52214;50.940;13.996;2022-07-29T15:08:23;37.54;26.76
65573;SHT30;52214;50.940;13.996;2022-07-29T15:10:51;39.32;25.75
65573;SHT30;52214;50.940;13.996;2022-07-29T15:13:16;39.10;25.97
65573;SHT30;52214;50.940;13.996;2022-07-29T15:15:42;38.30;26.71
65573;SHT30;52214;50.940;13.996;2022-07-29T15:18:07;35.31;30.06
65573;SHT30;52214;50.940;13.996;2022-07-29T15:20:34;34.17;31.34
65573;SHT30;52214;50.940;13.996;2022-07-29T15:23:00;34.49;29.25
65573;SHT30;52214;50.940;13.996;2022-07-29T15:25:25;35.71;29.74
65573;SHT30;52214;50.940;13.996;2022-07-29T15:27:51;37.33;28.11
65573;SHT30;52214;50.940;13.996;2022-07-29T15:30:17;39.39;26.07
65573;SHT30;52214;50.940;13.996;2022-07-29T15:32:43;40.24;24.69
65573;SHT30;52214;50.940;13.996;2022-07-29T15:35:09;39.93;25.79
65573;SHT30;52214;50.940;13.996;2022-07-29T15:37:37;38.60;26.28
65573;SHT30;52214;50.940;13.996;2022-07-29T15:40:04;37.53;27.49
65573;SHT30;52214;50.940;13.996;2022-07-29T15:42:30;37.56;27.71
65573;SHT30;52214;50.940;13.996;2022-07-29T15:44:55;38.87;26.89
65573;SHT30;52214;50.940;13.996;2022-07-29T15:47:22;37.70;27.60
65573;SHT30;52214;50.940;13.996;2022-07-29T15:49:47;36.70;28.48
65573;SHT30;52214;50.940;13.996;2022-07-29T15:52:18;37.18;28.02
65573;SHT30;52214;50.940;13.996;2022-07-29T15:54:44;35.20;30.12
65573;SHT30;52214;50.940;13.996;2022-07-29T15:57:10;35.93;29.05
65573;SHT30;52214;50.940;13.996;2022-07-29T15:59:36;36.26;29.29
65573;SHT30;52214;50.940;13.996;2022-07-29T16:02:02;35.68;29.57
65573;SHT30;52214;50.940;13.996;2022-07-29T16:04:27;35.99;30.05
65573;SHT30;52214;50.940;13.996;2022-07-29T16:06:53;35.79;29.63
65573;SHT30;52214;50.940;13.996;2022-07-29T16:09:19;36.32;29.47
65573;SHT30;52214;50.940;13.996;2022-07-29T16:11:45;34.78;31.19
65573;SHT30;52214;50.940;13.996;2022-07-29T16:14:13;34.20;31.83
65573;SHT30;52214;50.940;13.996;2022-07-29T16:16:38;34.00;32.32
65573;SHT30;52214;50.940;13.996;2022-07-29T16:19:05;33.80;32.60